Futenma Marine Corps Air Facility, Japan

12:29 AM JST on February 14, 2016 (GMT +0900)
Hiyagon | | Change Station
CLOSE
Current Station
Personal Weather Station
Location: Okinawa, OKINAWA
Elevation: 23 ft
Nearby Weather Stations

Elev 23 ft 26.32 °N, 127.82 °E | Updated 7 seconds ago

Partly Cloudy
Partly Cloudy
77.7 °F
Feels Like 76 °F
N
1.8
Wind Variable Wind from SW
Gusts 4.9 mph

Today
High -- | Low -- °F
--% Chance of Precip.
Yesterday
High -- | Low -- °F
Precip. -- in
Pressure 29.95 in
Visibility 6.2 miles
Clouds Few 1000 ft
Heat Index 76 °F
Dew Point Not available.
Humidity Not available.
Rainfall 0.00 in
Snow Depth Not available.
7:06 AM 6:20 PM
Waxing Crescent, 31% visible
METAR ROAH 131500Z 21010KT 9999 FEW010 22/21 Q1014 RMK 1CU010 A2995
Pressure 29.95 in
Visibility 6.2 miles
Clouds Few 1000 ft
Heat Index 76 °F
Dew Point Not available.
Humidity Not available.
Rainfall 0.00 in
Snow Depth Not available.
7:06 AM 6:20 PM
Waxing Crescent, 31% visible
METAR ROAH 131500Z 21010KT 9999 FEW010 22/21 Q1014 RMK 1CU010 A2995

10-Day Weather Forecast

No radar image for this location.
×

Almanac

Astronomy

Feb. 14, 2016 Rise Set
Actual Time
Civil Twilight
Nautical Twilight
Astronomical Twilight
Moon
Length of Visible Light
Length of Day
Tomorrow will be .
, % of the Moon is Illuminated

Today's Extremes

Country Highs Country Lows

Community

WunderPhotos

Upload Photos

1,892,580 photos uploaded!

WunderBlog® & News

Nearby

Air Quality

  Air Quality AQ Index Pollutant
Not available.

Snow Depth

Station Depth Elevation

Earthquake Activity

City Distance Mag. Time & Date
Minimum magnitude displayed is 2.5.

Coastal Water Temperatures

Place Temperature

Stations

Nearby Weather Stations

Station Location Temp. Windchill Dew Point Humidity Wind Precip. Elev Updated Type